Terminal Aerodrome Forecast
Issued by NWS Jacksonville, FL

Home | Current Version | Previous Version | Text Only | Print | Product List | Glossary On
Versions: 1 2 3 4 5 6 7 8 9 10 11 12 13 14 15
000
FTUS42 KJAX 281120
TAFSSI
TAF
KSSI 281120Z 2812/2912 22005KT P6SM SKC
     FM281400 26007KT P6SM FEW035 SCT250
     FM282000 18009KT P6SM SCT250
     FM290400 25005KT P6SM SCT250=

USA.gov is the U.S. government's official web portal to all federal, state and local government web resources and services.